Time;durP1;ratioP1;P1;durP2;ratioP2;P2;SDS_P1;SDS_P2;PMS_P1;PMS_P2;Temp;Humidity;BMP_temperature;BMP_pressure;BME280_temperature;BME280_humidity;BME280_pressure;Samples;Min_cycle;Max_cycle;Signal;HPM_P1;HPM_P2
2022/09/05 00:00:09;;;;;;;;;;;;;;;7.26;66.70;100339.84;4996206;28;20365;-80
2022/09/05 00:02:59;;;;;;;;;;;;;;;7.26;67.00;100341.59;4995979;28;20300;-79
2022/09/05 00:05:45;;;;;;;;;;;;;;;7.25;67.01;100339.81;4996408;28;19933;-79
2022/09/05 00:08:36;;;;;;;;;;;;;;;7.24;66.79;100343.25;4996191;28;19956;-79
2022/09/05 00:11:12;;;;;;;;;;;;;;;7.22;67.10;100339.75;4995896;28;19948;-79
2022/09/05 00:14:18;;;;;;;;;;;;;;;7.21;67.45;100356.19;4995962;28;20080;-78
2022/09/05 00:17:05;;;;;;;;;;;;;;;7.16;67.27;100338.78;4995976;28;19932;-80
2022/09/05 00:19:38;;;;;;;;;;;;;;;7.14;67.54;100342.16;4995628;28;20304;-80
2022/09/05 00:22:31;;;;;;;;;;;;;;;7.11;67.80;100339.47;4996152;28;19926;-80
2022/09/05 00:25:25;;;;;;;;;;;;;;;7.09;67.88;100339.44;4996271;28;19932;-81
2022/09/05 00:27:57;;;;;;;;;;;;;;;7.08;67.62;100339.41;4978531;28;19980;-80
2022/09/05 00:30:32;;;;;;;;;;;;;;;7.09;67.92;100344.63;4996631;28;19973;-80
2022/09/05 00:33:54;;;;;;;;;;;;;;;7.08;68.39;100340.28;4979011;28;19976;-79
2022/09/05 00:36:26;;;;;;;;;;;;;;;7.07;67.75;100335.91;4997650;28;19925;-80
2022/09/05 00:38:59;;;;;;;;;;;;;;;7.04;68.28;100335.84;5014008;28;19909;-78
2022/09/05 00:41:27;;;;;;;;;;;;;;;7.01;68.48;100333.16;5016447;28;19914;-78
2022/09/05 00:43:59;;;;;;;;;;;;;;;6.96;68.59;100334.78;5017081;28;19989;-76
2022/09/05 00:46:28;;;;;;;;;;;;;;;6.93;68.83;100339.91;4995448;28;20024;-77
2022/09/05 00:48:57;;;;;;;;;;;;;;;6.89;68.89;100333.75;4995581;28;19925;-78
2022/09/05 00:51:31;;;;;;;;;;;;;;;6.88;69.12;100336.28;4995192;28;20012;-77
2022/09/05 00:54:00;;;;;;;;;;;;;;;6.83;69.04;100332.72;4995426;28;19930;-78
2022/09/05 00:56:54;;;;;;;;;;;;;;;6.78;69.10;100324.81;4995209;28;19925;-78
2022/09/05 00:59:39;;;;;;;;;;;;;;;6.78;69.09;100334.31;4995092;28;19929;-80
2022/09/05 01:02:12;;;;;;;;;;;;;;;6.76;69.46;100321.28;4986230;28;19957;-79
2022/09/05 01:04:58;;;;;;;;;;;;;;;6.74;68.96;100320.38;4996331;28;19950;-78
2022/09/05 01:07:25;;;;;;;;;;;;;;;6.75;69.00;100317.81;4962644;28;19926;-78
2022/09/05 01:10:02;;;;;;;;;;;;;;;6.76;69.25;100324.75;4975458;28;19926;-78
2022/09/05 01:12:41;;;;;;;;;;;;;;;6.75;69.73;100325.63;4975539;28;19926;-79
2022/09/05 01:15:19;;;;;;;;;;;;;;;6.76;69.43;100327.34;4984692;28;20290;-79
2022/09/05 01:17:55;;;;;;;;;;;;;;;6.78;69.85;100324.81;4994505;28;19956;-78
2022/09/05 01:20:45;;;;;;;;;;;;;;;6.81;69.57;100324.00;4988431;28;19926;-78
2022/09/05 01:23:17;;;;;;;;;;;;;;;6.82;69.93;100320.56;4975472;28;19925;-79
2022/09/05 01:25:50;;;;;;;;;;;;;;;6.82;70.17;100320.56;4975548;28;19988;-81
2022/09/05 01:28:24;;;;;;;;;;;;;;;6.80;69.97;100323.13;4975368;28;19961;-82
2022/09/05 01:31:11;;;;;;;;;;;;;;;6.78;70.11;100323.94;4976092;28;19925;-81
2022/09/05 01:34:01;;;;;;;;;;;;;;;6.75;69.96;100328.22;4976650;28;19926;-84
2022/09/05 01:36:43;;;;;;;;;;;;;;;6.71;70.29;100303.00;4974450;28;19984;-81
2022/09/05 01:39:16;;;;;;;;;;;;;;;6.71;70.34;100312.47;4974860;28;20012;-81
2022/09/05 01:42:08;;;;;;;;;;;;;;;6.74;70.45;100315.19;4979037;28;19972;-81
2022/09/05 01:44:38;;;;;;;;;;;;;;;6.77;70.83;100317.84;4994232;28;19965;-81
2022/09/05 01:47:18;;;;;;;;;;;;;;;6.78;70.76;100313.56;4992830;28;19966;-81
2022/09/05 01:50:15;;;;;;;;;;;;;;;6.74;70.92;100316.03;4994034;28;19932;-82
2022/09/05 01:53:01;;;;;;;;;;;;;;;6.72;70.87;100314.25;4977587;28;19929;-81
2022/09/05 01:55:40;;;;;;;;;;;;;;;6.68;71.13;100308.09;4994449;28;19925;-81
2022/09/05 01:58:30;;;;;;;;;;;;;;;6.64;71.01;100311.44;4994281;28;20434;-82
2022/09/05 02:01:00;;;;;;;;;;;;;;;6.61;71.24;100311.38;4995389;28;19925;-81
2022/09/05 02:03:52;;;;;;;;;;;;;;;6.62;71.31;100307.06;4994367;28;19926;-81
2022/09/05 02:06:38;;;;;;;;;;;;;;;6.67;71.14;100318.47;4994074;28;20386;-82
2022/09/05 02:09:24;;;;;;;;;;;;;;;6.74;71.31;100313.44;4993474;28;19926;-81
2022/09/05 02:12:02;;;;;;;;;;;;;;;6.78;71.45;100317.03;4993855;28;19930;-80
2022/09/05 02:14:34;;;;;;;;;;;;;;;6.79;70.77;100310.09;4993984;28;19926;-81
2022/09/05 02:17:08;;;;;;;;;;;;;;;6.76;71.07;100316.97;4976321;28;20028;-80
2022/09/05 02:19:59;;;;;;;;;;;;;;;6.75;70.73;100319.50;4993581;28;19926;-79
2022/09/05 02:22:31;;;;;;;;;;;;;;;6.74;70.82;100317.78;4993602;28;19933;-80
2022/09/05 02:25:08;;;;;;;;;;;;;;;6.72;70.78;100320.31;4993747;28;19948;-81
2022/09/05 02:28:16;;;;;;;;;;;;;;;6.73;70.99;100314.31;4993940;28;19973;-80
2022/09/05 02:30:48;;;;;;;;;;;;;;;6.84;70.51;100326.66;4993862;28;19926;-81
2022/09/05 02:33:59;;;;;;;;;;;;;;;6.92;70.65;100317.34;4993879;28;19929;-81
2022/09/05 02:36:34;;;;;;;;;;;;;;;7.02;70.35;100316.75;4986984;28;19979;-82
2022/09/05 02:39:25;;;;;;;;;;;;;;;7.12;70.08;100312.66;4992689;28;19930;-80
2022/09/05 02:42:18;;;;;;;;;;;;;;;7.22;69.97;100316.38;4993497;28;19967;-79
2022/09/05 02:45:14;;;;;;;;;;;;;;;7.31;69.76;100313.97;4993568;28;19926;-82
2022/09/05 02:48:07;;;;;;;;;;;;;;;7.41;69.68;100309.88;4994166;28;19948;-82
2022/09/05 02:51:02;;;;;;;;;;;;;;;7.51;69.71;100306.66;4993931;28;20011;-81
2022/09/05 02:53:52;;;;;;;;;;;;;;;7.55;69.11;100316.25;4993970;28;19925;-81
2022/09/05 02:56:42;;;;;;;;;;;;;;;7.58;69.10;100312.03;4997047;28;20416;-81
2022/09/05 02:59:35;;;;;;;;;;;;;;;7.64;69.19;100318.22;5015202;28;19936;-82
2022/09/05 03:02:21;;;;;;;;;;;;;;;7.65;69.14;100317.38;5003812;28;19925;-80
2022/09/05 03:05:18;;;;;;;;;;;;;;;7.65;69.08;100325.16;4994731;28;19926;-80
2022/09/05 03:07:53;;;;;;;;;;;;;;;7.68;69.07;100313.13;4974030;28;19926;-79
2022/09/05 03:10:23;;;;;;;;;;;;;;;7.76;68.96;100318.47;4993522;28;20329;-80
2022/09/05 03:13:29;;;;;;;;;;;;;;;7.78;68.78;100319.38;4992384;28;19976;-80
2022/09/05 03:16:14;;;;;;;;;;;;;;;7.80;68.85;100317.69;4991685;28;20016;-81
2022/09/05 03:18:44;;;;;;;;;;;;;;;7.86;68.55;100315.22;4993500;28;19936;-81
2022/09/05 03:21:31;;;;;;;;;;;;;;;7.88;68.59;100315.28;4976037;28;19926;-80
2022/09/05 03:24:17;;;;;;;;;;;;;;;7.88;68.57;100310.94;4966927;28;19925;-80
2022/09/05 03:27:03;;;;;;;;;;;;;;;7.92;68.59;100306.69;4997415;28;19976;-80
2022/09/05 03:29:30;;;;;;;;;;;;;;;7.99;68.32;100312.03;4979581;28;19925;-80
2022/09/05 03:32:24;;;;;;;;;;;;;;;8.02;68.38;100305.16;4996598;28;19926;-81
2022/09/05 03:34:57;;;;;;;;;;;;;;;8.03;68.44;100309.53;4997153;28;20314;-83
2022/09/05 03:37:33;;;;;;;;;;;;;;;7.96;68.58;100312.00;4995663;28;19926;-83
2022/09/05 03:40:09;;;;;;;;;;;;;;;7.94;68.37;100310.22;4996535;28;20374;-82
2022/09/05 03:42:42;;;;;;;;;;;;;;;7.92;68.60;100315.38;4979057;28;20302;-82
2022/09/05 03:45:28;;;;;;;;;;;;;;;7.92;68.57;100317.97;4995236;28;19944;-84
2022/09/05 03:48:35;;;;;;;;;;;;;;;7.94;68.56;100311.06;4996711;28;20020;-83
2022/09/05 03:51:24;;;;;;;;;;;;;;;7.99;68.43;100309.44;4947407;28;20341;-83
2022/09/05 03:54:28;;;;;;;;;;;;;;;8.13;68.16;100311.44;4962567;28;20024;-81
2022/09/05 03:57:24;;;;;;;;;;;;;;;8.22;67.87;100311.66;4992522;28;19930;-81
2022/09/05 04:00:13;;;;;;;;;;;;;;;8.30;67.94;100307.47;4996120;28;19973;-80
2022/09/05 04:02:49;;;;;;;;;;;;;;;8.40;67.61;100314.63;4996368;28;20378;-81
2022/09/05 04:05:39;;;;;;;;;;;;;;;8.37;67.85;100313.69;4981356;28;20322;-81
2022/09/05 04:08:41;;;;;;;;;;;;;;;8.38;67.66;100316.28;4978324;28;20412;-80
2022/09/05 04:11:14;;;;;;;;;;;;;;;8.38;68.07;100312.81;4995982;28;19932;-79
2022/09/05 04:13:52;;;;;;;;;;;;;;;8.44;67.76;100317.31;4997351;28;19972;-79
2022/09/05 04:16:26;;;;;;;;;;;;;;;8.51;67.79;100308.75;4995846;28;20013;-80
2022/09/05 04:19:12;;;;;;;;;;;;;;;8.64;67.30;100309.88;4996470;28;19965;-80
2022/09/05 04:22:05;;;;;;;;;;;;;;;8.77;66.75;100310.09;4980772;28;19949;-79
2022/09/05 04:24:44;;;;;;;;;;;;;;;8.99;66.97;100308.78;4982056;28;19929;-80
2022/09/05 04:27:14;;;;;;;;;;;;;;;9.21;66.57;100307.38;4978538;28;19965;-79
2022/09/05 04:29:53;;;;;;;;;;;;;;;9.33;65.78;100308.41;4994833;28;19929;-80
2022/09/05 04:32:26;;;;;;;;;;;;;;;9.56;65.40;100299.22;4985832;28;19957;-80
2022/09/05 04:35:12;;;;;;;;;;;;;;;9.68;65.43;100310.66;4980347;28;19926;-79
2022/09/05 04:37:55;;;;;;;;;;;;;;;9.67;64.95;100309.78;4978108;28;19926;-77
2022/09/05 04:40:30;;;;;;;;;;;;;;;9.67;65.53;100304.56;4988502;28;19984;-79
2022/09/05 04:43:02;;;;;;;;;;;;;;;9.69;65.46;100312.44;4986400;28;19976;-81
2022/09/05 04:45:34;;;;;;;;;;;;;;;9.72;65.22;100302.94;4984807;28;19926;-80
2022/09/05 04:48:04;;;;;;;;;;;;;;;9.79;65.20;100304.75;4988679;28;19936;-80
2022/09/05 04:50:39;;;;;;;;;;;;;;;9.98;64.87;100305.88;4985227;28;19926;-79
2022/09/05 04:53:12;;;;;;;;;;;;;;;10.14;64.26;100299.09;4991479;28;19906;-77
2022/09/05 04:55:39;;;;;;;;;;;;;;;10.27;64.16;100304.47;4993163;28;19926;-77
2022/09/05 04:58:21;;;;;;;;;;;;;;;10.39;63.79;100305.53;4960678;28;19926;-78
2022/09/05 05:01:02;;;;;;;;;;;;;;;10.58;63.32;100303.09;4975966;28;19926;-78
2022/09/05 05:03:50;;;;;;;;;;;;;;;10.72;63.43;100295.41;4977113;28;19926;-78
2022/09/05 05:06:44;;;;;;;;;;;;;;;10.71;63.37;100294.56;4977629;28;19926;-77
2022/09/05 05:09:19;;;;;;;;;;;;;;;10.69;63.72;100293.66;4976806;28;19930;-79
2022/09/05 05:12:01;;;;;;;;;;;;;;;10.55;63.74;100297.84;4976755;28;19926;-79
2022/09/05 05:14:59;;;;;;;;;;;;;;;10.39;64.95;100307.25;4978753;28;19926;-77
2022/09/05 05:17:51;;;;;;;;;;;;;;;10.29;64.78;100297.53;4983755;28;20032;-78
2022/09/05 05:20:57;;;;;;;;;;;;;;;10.41;65.33;100295.97;4995063;28;19972;-78
2022/09/05 05:23:30;;;;;;;;;;;;;;;10.71;64.52;100294.56;4994956;28;19932;-77
2022/09/05 05:25:59;;;;;;;;;;;;;;;11.01;63.98;100296.56;4994843;28;20382;-77
2022/09/05 05:28:44;;;;;;;;;;;;;;;11.19;63.83;100295.81;4994683;28;19925;-78
2022/09/05 05:31:13;;;;;;;;;;;;;;;11.29;63.40;100294.13;4978356;28;20052;-79
2022/09/05 05:33:45;;;;;;;;;;;;;;;11.52;63.00;100296.06;4995177;28;19925;-79
2022/09/05 05:36:17;;;;;;;;;;;;;;;11.65;63.01;100300.50;4995349;28;19980;-79
2022/09/05 05:38:59;;;;;;;;;;;;;;;11.85;62.59;100297.97;4995645;28;19926;-80
2022/09/05 05:41:32;;;;;;;;;;;;;;;12.12;62.02;100294.66;5001214;28;19932;-79
2022/09/05 05:44:08;;;;;;;;;;;;;;;12.24;61.78;100296.47;4985926;28;19936;-79
2022/09/05 05:46:37;;;;;;;;;;;;;;;12.26;61.79;100294.69;4993669;28;19932;-77
2022/09/05 05:49:27;;;;;;;;;;;;;;;12.30;61.50;100291.22;4990086;28;19926;-78
2022/09/05 05:52:04;;;;;;;;;;;;;;;12.23;61.88;100297.31;4950729;28;19926;-79
2022/09/05 05:54:51;;;;;;;;;;;;;;;12.31;61.79;100294.72;4991619;28;19974;-80
2022/09/05 05:57:44;;;;;;;;;;;;;;;12.43;61.11;100305.22;4968766;28;20362;-78
2022/09/05 06:00:11;;;;;;;;;;;;;;;12.52;61.19;100302.66;4983974;28;19925;-79
2022/09/05 06:02:55;;;;;;;;;;;;;;;12.72;60.93;100302.69;4984791;28;20362;-83
2022/09/05 06:06:01;;;;;;;;;;;;;;;13.18;59.96;100305.31;4986084;28;19930;-79
2022/09/05 06:08:37;;;;;;;;;;;;;;;13.49;59.18;100298.34;4982531;28;20009;-80
2022/09/05 06:11:36;;;;;;;;;;;;;;;13.55;59.25;100304.44;4983760;28;19929;-78
2022/09/05 06:14:34;;;;;;;;;;;;;;;13.59;59.19;100300.94;4987612;28;19965;-80
2022/09/05 06:17:35;;;;;;;;;;;;;;;13.41;59.25;100294.84;4992519;28;19927;-79
2022/09/05 06:20:11;;;;;;;;;;;;;;;13.33;59.59;100296.59;4994124;28;19929;-82
2022/09/05 06:23:12;;;;;;;;;;;;;;;13.42;59.40;100298.34;4994558;28;19932;-81
2022/09/05 06:26:02;;;;;;;;;;;;;;;13.36;59.38;100299.25;4994030;28;19932;-79
2022/09/05 06:28:50;;;;;;;;;;;;;;;13.30;59.51;100289.63;4994735;28;19932;-82
2022/09/05 06:31:21;;;;;;;;;;;;;;;13.30;59.29;100284.38;4944881;28;19995;-79
2022/09/05 06:34:15;;;;;;;;;;;;;;;13.14;59.45;100294.84;4994813;28;19932;-80
2022/09/05 06:37:08;;;;;;;;;;;;;;;13.04;59.76;100286.09;4994484;28;20029;-78
2022/09/05 06:39:51;;;;;;;;;;;;;;;12.91;59.45;100290.47;4992926;28;19925;-81
2022/09/05 06:42:30;;;;;;;;;;;;;;;13.07;59.34;100286.09;4994524;28;19996;-79
2022/09/05 06:45:28;;;;;;;;;;;;;;;13.47;58.67;100288.72;4994817;28;19926;-81
2022/09/05 06:48:03;;;;;;;;;;;;;;;13.77;58.21;100287.78;4995424;28;19926;-79
2022/09/05 06:50:43;;;;;;;;;;;;;;;13.91;56.55;100283.34;4979106;28;19996;-82
2022/09/05 06:53:34;;;;;;;;;;;;;;;14.10;56.06;100284.16;4996853;28;19926;-79
2022/09/05 06:56:04;;;;;;;;;;;;;;;13.98;56.08;100286.84;4997043;28;19925;-81
2022/09/05 06:58:50;;;;;;;;;;;;;;;13.73;56.39;100289.53;4998321;28;20479;-82
2022/09/05 07:01:26;;;;;;;;;;;;;;;13.76;55.88;100286.03;4997777;28;20376;-79
2022/09/05 07:04:22;;;;;;;;;;;;;;;13.75;55.95;100286.06;5002338;28;19934;-79
2022/09/05 07:07:09;;;;;;;;;;;;;;;13.79;55.92;100286.03;4994408;28;19926;-80
2022/09/05 07:09:56;;;;;;;;;;;;;;;13.83;55.65;100287.78;4981860;28;19933;-79
2022/09/05 07:13:22;;;;;;;;;;;;;;;13.54;55.20;100287.84;4971153;28;19932;-78
2022/09/05 07:15:54;;;;;;;;;;;;;;;13.04;56.08;100284.34;4985578;28;19985;-78
2022/09/05 07:18:42;;;;;;;;;;;;;;;12.89;55.58;100289.59;4980020;28;20021;-81
2022/09/05 07:21:30;;;;;;;;;;;;;;;12.94;55.39;100285.22;4977912;28;20020;-78
2022/09/05 07:24:03;;;;;;;;;;;;;;;13.21;54.72;100279.09;4977048;28;19957;-77
2022/09/05 07:26:40;;;;;;;;;;;;;;;13.56;54.15;100286.09;4978342;28;19933;-77
2022/09/05 07:29:28;;;;;;;;;;;;;;;13.64;52.77;100278.19;4960011;28;19925;-78
2022/09/05 07:31:58;;;;;;;;;;;;;;;13.52;52.66;100285.19;4977338;28;20394;-77
2022/09/05 07:34:36;;;;;;;;;;;;;;;13.52;52.87;100282.56;4960082;28;19932;-78
2022/09/05 07:37:09;;;;;;;;;;;;;;;13.72;52.31;100272.06;4977362;28;19926;-77
2022/09/05 07:39:45;;;;;;;;;;;;;;;13.82;52.28;100279.88;4977139;28;19933;-78
2022/09/05 07:42:15;;;;;;;;;;;;;;;13.70;51.70;100272.91;4977158;28;19926;-78
2022/09/05 07:44:57;;;;;;;;;;;;;;;13.40;52.46;100264.25;4977120;28;19925;-81
2022/09/05 07:47:30;;;;;;;;;;;;;;;13.10;53.59;100273.00;4977072;28;20010;-78
2022/09/05 07:50:04;;;;;;;;;;;;;;;12.95;53.92;100270.34;4976997;28;20401;-79
2022/09/05 07:52:54;;;;;;;;;;;;;;;12.87;53.81;100276.47;4977065;28;19925;-78
2022/09/05 07:55:48;;;;;;;;;;;;;;;12.93;53.66;100269.47;4977184;28;19973;-78
2022/09/05 07:58:40;;;;;;;;;;;;;;;13.15;53.44;100271.25;4976576;28;19927;-83
2022/09/05 08:01:11;;;;;;;;;;;;;;;13.49;52.88;100268.59;4976334;28;20029;-79
2022/09/05 08:03:39;;;;;;;;;;;;;;;13.86;52.06;100271.13;4976980;28;19926;-80
2022/09/05 08:06:11;;;;;;;;;;;;;;;13.93;51.70;100280.72;4959677;28;19926;-81
2022/09/05 08:09:03;;;;;;;;;;;;;;;13.99;51.09;100271.97;4976326;28;19925;-79
2022/09/05 08:11:53;;;;;;;;;;;;;;;14.01;50.97;100271.06;4979361;28;19929;-82
2022/09/05 08:14:41;;;;;;;;;;;;;;;13.76;50.99;100264.16;4988436;28;20274;-82
2022/09/05 08:17:14;;;;;;;;;;;;;;;13.53;51.58;100267.72;4996704;28;19926;-81
2022/09/05 08:19:53;;;;;;;;;;;;;;;13.27;51.75;100260.75;4995838;28;19926;-78
2022/09/05 08:22:52;;;;;;;;;;;;;;;13.18;52.41;100257.25;4980711;28;19929;-80
2022/09/05 08:25:28;;;;;;;;;;;;;;;13.13;52.26;100262.50;4996541;28;19925;-80
2022/09/05 08:28:19;;;;;;;;;;;;;;;13.10;51.96;100255.50;4996029;28;19933;-82
2022/09/05 08:31:00;;;;;;;;;;;;;;;13.40;51.69;100258.09;4995984;28;20297;-80
2022/09/05 08:33:32;;;;;;;;;;;;;;;13.62;50.49;100254.56;4996013;28;20386;-79
2022/09/05 08:36:06;;;;;;;;;;;;;;;13.95;50.04;100255.31;4995559;28;19932;-78
2022/09/05 08:38:37;;;;;;;;;;;;;;;14.22;49.73;100253.44;4995593;28;19948;-84
2022/09/05 08:41:13;;;;;;;;;;;;;;;14.31;48.65;100249.00;4995835;28;19960;-81
2022/09/05 08:43:54;;;;;;;;;;;;;;;14.47;48.86;100241.03;5003748;28;20381;-79
2022/09/05 08:46:51;;;;;;;;;;;;;;;14.47;48.58;100236.66;5004775;28;19932;-79
2022/09/05 08:49:32;;;;;;;;;;;;;;;14.40;48.57;100263.00;4996130;28;19929;-83
2022/09/05 08:52:07;;;;;;;;;;;;;;;13.99;48.37;100262.31;4995303;28;19969;-79
2022/09/05 08:54:42;;;;;;;;;;;;;;;13.86;48.76;100252.75;4995017;28;19925;-77
2022/09/05 08:57:11;;;;;;;;;;;;;;;14.00;48.03;100252.66;4995400;28;19968;-80
2022/09/05 08:59:40;;;;;;;;;;;;;;;14.30;47.95;100256.91;4993146;28;19926;-79
2022/09/05 09:02:33;;;;;;;;;;;;;;;14.65;47.29;100240.09;4994292;28;19988;-80
2022/09/05 09:05:23;;;;;;;;;;;;;;;15.10;46.85;100240.56;4994268;28;19930;-77
2022/09/05 09:08:28;;;;;;;;;;;;;;;15.33;45.68;100237.72;4994007;28;19930;-80
2022/09/05 09:11:01;;;;;;;;;;;;;;;15.45;45.21;100236.75;4994958;28;19925;-80
2022/09/05 09:13:51;;;;;;;;;;;;;;;15.28;45.01;100235.13;4994075;28;19926;-79
2022/09/05 09:16:26;;;;;;;;;;;;;;;15.02;45.92;100237.16;4994722;28;19996;-79
2022/09/05 09:19:01;;;;;;;;;;;;;;;14.74;46.07;100238.25;4994266;28;19930;-80
2022/09/05 09:21:28;;;;;;;;;;;;;;;14.52;46.70;100240.13;4995009;28;20362;-80
2022/09/05 09:24:11;;;;;;;;;;;;;;;14.48;46.97;100237.53;4977556;28;19925;-81
2022/09/05 09:27:00;;;;;;;;;;;;;;;14.32;46.67;100239.38;4976342;28;19933;-78
2022/09/05 09:29:33;;;;;;;;;;;;;;;14.04;47.07;100255.28;4993903;28;20378;-78
2022/09/05 09:32:05;;;;;;;;;;;;;;;13.90;47.61;100246.59;4994496;28;19956;-80
2022/09/05 09:34:36;;;;;;;;;;;;;;;13.85;47.30;100249.25;4977675;28;20401;-79
2022/09/05 09:37:07;;;;;;;;;;;;;;;13.88;47.50;100251.84;4993820;28;20357;-80
2022/09/05 09:39:55;;;;;;;;;;;;;;;14.00;47.49;100243.03;4977123;28;19932;-78
2022/09/05 09:42:38;;;;;;;;;;;;;;;14.15;47.07;100249.97;4994578;28;20378;-80
2022/09/05 09:45:06;;;;;;;;;;;;;;;14.36;46.39;100240.22;4995116;28;19926;-77
2022/09/05 09:48:03;;;;;;;;;;;;;;;14.64;46.24;100231.31;4995712;28;19926;-79
2022/09/05 09:50:42;;;;;;;;;;;;;;;14.84;45.86;100239.06;4976975;28;20374;-80
2022/09/05 09:53:36;;;;;;;;;;;;;;;14.89;45.48;100232.00;4994401;28;20488;-79
2022/09/05 09:56:14;;;;;;;;;;;;;;;15.03;44.87;100233.63;4994550;28;20472;-80
2022/09/05 09:58:48;;;;;;;;;;;;;;;15.02;44.98;100227.50;4992907;28;20377;-79
2022/09/05 10:01:33;;;;;;;;;;;;;;;15.11;44.42;100226.53;4994505;28;20358;-79
2022/09/05 10:04:09;;;;;;;;;;;;;;;15.39;44.41;100213.97;4994415;28;20366;-80
2022/09/05 10:07:07;;;;;;;;;;;;;;;15.80;43.83;100217.06;4976950;28;19925;-79
2022/09/05 10:10:13;;;;;;;;;;;;;;;15.96;43.60;100210.72;4994780;28;19926;-75
2022/09/05 10:13:19;;;;;;;;;;;;;;;15.79;43.25;100212.66;4993986;28;19926;-76
2022/09/05 10:16:06;;;;;;;;;;;;;;;15.39;44.18;100211.34;4993772;28;20020;-77
2022/09/05 10:18:53;;;;;;;;;;;;;;;15.10;44.34;100217.78;4993617;28;19926;-77
2022/09/05 10:21:38;;;;;;;;;;;;;;;15.15;44.78;100217.72;4993612;28;20448;-77
2022/09/05 10:24:17;;;;;;;;;;;;;;;15.31;44.25;100218.44;4993861;28;19973;-77
2022/09/05 10:27:02;;;;;;;;;;;;;;;15.48;44.31;100207.72;4993945;28;20077;-78
2022/09/05 10:29:43;;;;;;;;;;;;;;;15.56;44.13;100208.53;4994085;28;19932;-78
2022/09/05 10:32:24;;;;;;;;;;;;;;;15.47;44.13;100209.50;4998115;28;19979;-78
2022/09/05 10:35:11;;;;;;;;;;;;;;;15.52;44.09;100201.53;4999238;28;19960;-79
2022/09/05 10:37:53;;;;;;;;;;;;;;;15.62;44.02;100204.97;4982784;28;19930;-80
2022/09/05 10:40:22;;;;;;;;;;;;;;;15.65;43.99;100195.25;5010037;28;19926;-78
2022/09/05 10:42:57;;;;;;;;;;;;;;;15.61;43.61;100211.97;4980970;28;19969;-80
2022/09/05 10:45:46;;;;;;;;;;;;;;;15.41;44.02;100203.44;4993103;28;20029;-78
2022/09/05 10:48:28;;;;;;;;;;;;;;;15.43;44.10;100199.91;4997138;28;20024;-80
2022/09/05 10:50:55;;;;;;;;;;;;;;;15.55;43.90;100201.50;5002658;28;19929;-78
2022/09/05 10:53:28;;;;;;;;;;;;;;;15.61;43.96;100201.44;5003415;28;19926;-79
2022/09/05 10:56:06;;;;;;;;;;;;;;;15.71;43.83;100203.09;4994419;28;20337;-81
2022/09/05 10:58:51;;;;;;;;;;;;;;;15.57;43.21;100202.34;4967864;28;19969;-80
2022/09/05 11:01:42;;;;;;;;;;;;;;;15.48;44.03;100200.69;4981212;28;19960;-78
2022/09/05 11:05:07;;;;;;;;;;;;;;;15.55;43.75;100212.94;4990619;28;19926;-80
2022/09/05 11:07:42;;;;;;;;;;;;;;;15.48;43.86;100198.06;4899188;29;20368;-77
2022/09/05 11:10:27;;;;;;;;;;;;;;;15.63;43.59;100202.28;4899136;29;19928;-79
2022/09/05 11:12:55;;;;;;;;;;;;;;;15.52;43.58;100188.38;4963329;28;19965;-79
2022/09/05 11:15:23;;;;;;;;;;;;;;;15.56;43.36;100176.94;4996527;28;19934;-80
2022/09/05 11:17:57;;;;;;;;;;;;;;;15.56;43.78;100187.47;4986994;28;20117;-78
2022/09/05 11:20:37;;;;;;;;;;;;;;;15.68;43.55;100182.06;4987720;28;19949;-78
2022/09/05 11:23:10;;;;;;;;;;;;;;;15.55;43.68;100181.34;4988119;28;19972;-78
2022/09/05 11:25:38;;;;;;;;;;;;;;;15.01;44.25;100175.75;4987203;28;19926;-80
2022/09/05 11:28:17;;;;;;;;;;;;;;;14.57;45.04;100181.44;4982835;28;19925;-78
2022/09/05 11:30:49;;;;;;;;;;;;;;;14.36;45.90;100182.41;4984938;28;19930;-80
2022/09/05 11:33:31;;;;;;;;;;;;;;;14.29;46.12;100171.94;4977512;28;19981;-76
2022/09/05 11:36:42;;;;;;;;;;;;;;;14.21;46.13;100181.63;4960093;28;20306;-79
2022/09/05 11:39:47;;;;;;;;;;;;;;;14.25;46.21;100172.84;4977037;28;19926;-78
2022/09/05 11:42:43;;;;;;;;;;;;;;;14.49;45.87;100171.78;4976042;28;19933;-79
2022/09/05 11:45:14;;;;;;;;;;;;;;;14.76;45.60;100169.88;4977168;28;19933;-79
2022/09/05 11:47:41;;;;;;;;;;;;;;;15.08;45.57;100166.06;4976927;28;19926;-79
2022/09/05 11:50:13;;;;;;;;;;;;;;;15.41;45.08;100167.44;4959732;28;20355;-78
2022/09/05 11:52:56;;;;;;;;;;;;;;;15.44;44.78;100169.16;4977130;28;19948;-79
2022/09/05 11:55:27;;;;;;;;;;;;;;;15.28;45.22;100163.22;4976824;28;20338;-79
2022/09/05 11:58:26;;;;;;;;;;;;;;;15.35;45.15;100159.63;4976940;28;19969;-81
2022/09/05 12:01:29;;;;;;;;;;;;;;;15.41;45.18;100158.69;4936868;28;19926;-79
2022/09/05 12:04:28;;;;;;;;;;;;;;;15.52;45.16;100156.78;4976739;28;19926;-78
2022/09/05 12:07:00;;;;;;;;;;;;;;;15.57;44.91;100155.84;4995825;28;19994;-78
2022/09/05 12:09:32;;;;;;;;;;;;;;;15.77;44.78;100141.59;4976947;28;20394;-78
2022/09/05 12:12:25;;;;;;;;;;;;;;;15.97;44.71;100146.56;4976905;28;19930;-77
2022/09/05 12:15:15;;;;;;;;;;;;;;;15.68;45.03;100150.47;4976663;28;19989;-80
2022/09/05 12:18:04;;;;;;;;;;;;;;;15.30;46.18;100154.41;4976325;28;19965;-78
2022/09/05 12:20:55;;;;;;;;;;;;;;;15.02;46.67;100145.09;4986562;28;20024;-79
2022/09/05 12:23:37;;;;;;;;;;;;;;;15.01;46.95;100140.69;4995891;28;19948;-80
2022/09/05 12:26:32;;;;;;;;;;;;;;;15.35;46.68;100136.78;4976028;28;20291;-76
2022/09/05 12:29:21;;;;;;;;;;;;;;;15.24;46.52;100138.69;4976399;28;19926;-78
2022/09/05 12:32:06;;;;;;;;;;;;;;;15.12;47.16;100144.97;4976567;28;19925;-79
2022/09/05 12:34:58;;;;;;;;;;;;;;;15.07;47.23;100144.13;4995705;28;20031;-77
2022/09/05 12:37:50;;;;;;;;;;;;;;;15.17;46.90;100138.78;4981288;28;19925;-76
2022/09/05 12:41:04;;;;;;;;;;;;;;;15.28;47.01;100137.75;4992104;28;20385;-80
2022/09/05 12:44:13;;;;;;;;;;;;;;;15.36;46.49;100138.56;4991609;28;19957;-78
2022/09/05 12:47:07;;;;;;;;;;;;;;;15.00;47.33;100134.56;4983998;28;20429;-77
2022/09/05 12:50:12;;;;;;;;;;;;;;;14.63;48.14;100132.31;4978422;28;19926;-78
2022/09/05 12:52:43;;;;;;;;;;;;;;;14.28;49.06;100135.16;4985532;28;20044;-75
2022/09/05 12:55:10;;;;;;;;;;;;;;;13.97;49.45;100138.00;4983615;28;19961;-78
2022/09/05 12:57:40;;;;;;;;;;;;;;;13.80;50.05;100137.25;4985059;28;19984;-79
2022/09/05 13:00:40;;;;;;;;;;;;;;;13.67;50.27;100144.31;4983931;28;19941;-77
2022/09/05 13:03:29;;;;;;;;;;;;;;;13.58;50.41;100146.97;4980345;28;20313;-77
2022/09/05 13:06:09;;;;;;;;;;;;;;;13.48;50.82;100140.88;4984667;28;19969;-76
2022/09/05 13:08:59;;;;;;;;;;;;;;;13.62;50.30;100140.84;4983296;28;19949;-77
2022/09/05 13:11:27;;;;;;;;;;;;;;;13.77;50.13;100142.53;4984305;28;19929;-77
2022/09/05 13:14:18;;;;;;;;;;;;;;;13.82;50.53;100131.09;4983542;28;20382;-77
2022/09/05 13:17:06;;;;;;;;;;;;;;;13.93;50.21;100136.28;4975896;28;20395;-78
2022/09/05 13:19:39;;;;;;;;;;;;;;;13.93;50.50;100133.66;4979533;28;19933;-76
2022/09/05 13:22:08;;;;;;;;;;;;;;;13.97;50.48;100129.25;4979752;28;19938;-78
2022/09/05 13:24:40;;;;;;;;;;;;;;;14.00;50.06;100132.72;4975503;28;19933;-78
2022/09/05 13:27:07;;;;;;;;;;;;;;;14.02;50.36;100130.97;4975203;28;19948;-80
2022/09/05 13:29:51;;;;;;;;;;;;;;;13.93;50.64;100131.03;4975029;28;19926;-78
2022/09/05 13:32:44;;;;;;;;;;;;;;;13.73;51.22;100124.13;4975210;28;20058;-80
2022/09/05 13:35:35;;;;;;;;;;;;;;;13.68;51.16;100123.31;4975144;28;20021;-81
2022/09/05 13:38:35;;;;;;;;;;;;;;;13.82;51.29;100120.59;4975477;28;19925;-78
2022/09/05 13:41:20;;;;;;;;;;;;;;;13.82;51.39;100111.84;4973879;28;20294;-78
2022/09/05 13:43:55;;;;;;;;;;;;;;;13.97;51.00;100110.88;4974711;28;20404;-78
2022/09/05 13:46:53;;;;;;;;;;;;;;;14.13;50.71;100104.63;4975131;28;20032;-78
2022/09/05 13:49:28;;;;;;;;;;;;;;;14.23;50.92;100108.06;4958410;28;19984;-78
2022/09/05 13:52:16;;;;;;;;;;;;;;;14.16;50.97;100111.63;4975060;28;19980;-78
2022/09/05 13:55:04;;;;;;;;;;;;;;;14.07;51.34;100113.44;4973353;28;19972;-78
2022/09/05 13:57:34;;;;;;;;;;;;;;;13.94;51.72;100109.16;4947488;28;19926;-77
2022/09/05 14:00:09;;;;;;;;;;;;;;;13.85;51.94;100110.09;4974576;28;19926;-79